sensor_id;sensor_type;location;lat;lon;timestamp;P1;durP1;ratioP1;P2;durP2;ratioP2
2053;SDS011;1032;52.542;13.440;2022-12-15T00:01:17;67.80;;;37.25;;
2053;SDS011;1032;52.542;13.440;2022-12-15T00:04:01;73.93;;;37.88;;
2053;SDS011;1032;52.542;13.440;2022-12-15T00:06:46;65.70;;;37.50;;
2053;SDS011;1032;52.542;13.440;2022-12-15T00:09:30;65.18;;;38.08;;
2053;SDS011;1032;52.542;13.440;2022-12-15T00:12:15;59.58;;;35.90;;
2053;SDS011;1032;52.542;13.440;2022-12-15T00:14:59;69.25;;;39.35;;
2053;SDS011;1032;52.542;13.440;2022-12-15T00:17:45;73.35;;;41.28;;
2053;SDS011;1032;52.542;13.440;2022-12-15T00:20:29;74.32;;;39.50;;
2053;SDS011;1032;52.542;13.440;2022-12-15T00:23:13;73.70;;;40.92;;
2053;SDS011;1032;52.542;13.440;2022-12-15T00:25:58;61.35;;;37.28;;
2053;SDS011;1032;52.542;13.440;2022-12-15T00:28:42;66.57;;;38.10;;
2053;SDS011;1032;52.542;13.440;2022-12-15T00:31:26;67.55;;;38.47;;
2053;SDS011;1032;52.542;13.440;2022-12-15T00:34:12;72.10;;;38.95;;
2053;SDS011;1032;52.542;13.440;2022-12-15T00:36:56;65.20;;;38.90;;
2053;SDS011;1032;52.542;13.440;2022-12-15T00:39:41;68.70;;;38.00;;
2053;SDS011;1032;52.542;13.440;2022-12-15T00:42:08;54.08;;;36.90;;
2053;SDS011;1032;52.542;13.440;2022-12-15T00:44:35;73.45;;;39.25;;
2053;SDS011;1032;52.542;13.440;2022-12-15T00:47:02;67.88;;;39.85;;
2053;SDS011;1032;52.542;13.440;2022-12-15T00:49:29;62.95;;;37.67;;
2053;SDS011;1032;52.542;13.440;2022-12-15T00:52:15;59.67;;;35.72;;
2053;SDS011;1032;52.542;13.440;2022-12-15T00:55:00;68.28;;;39.95;;
2053;SDS011;1032;52.542;13.440;2022-12-15T00:57:45;62.78;;;39.00;;
2053;SDS011;1032;52.542;13.440;2022-12-15T01:00:29;64.40;;;38.78;;
2053;SDS011;1032;52.542;13.440;2022-12-15T01:03:14;70.57;;;42.90;;
2053;SDS011;1032;52.542;13.440;2022-12-15T01:06:04;70.25;;;39.80;;
2053;SDS011;1032;52.542;13.440;2022-12-15T01:08:49;70.05;;;40.28;;
2053;SDS011;1032;52.542;13.440;2022-12-15T01:11:33;77.00;;;41.65;;
2053;SDS011;1032;52.542;13.440;2022-12-15T01:14:18;65.47;;;37.60;;
2053;SDS011;1032;52.542;13.440;2022-12-15T01:17:02;60.20;;;36.22;;
2053;SDS011;1032;52.542;13.440;2022-12-15T01:19:46;63.88;;;38.03;;
2053;SDS011;1032;52.542;13.440;2022-12-15T01:22:32;61.97;;;36.40;;
2053;SDS011;1032;52.542;13.440;2022-12-15T01:25:00;59.83;;;36.65;;
2053;SDS011;1032;52.542;13.440;2022-12-15T01:27:27;69.50;;;38.95;;
2053;SDS011;1032;52.542;13.440;2022-12-15T01:29:54;68.47;;;40.65;;
2053;SDS011;1032;52.542;13.440;2022-12-15T01:32:20;67.60;;;40.88;;
2053;SDS011;1032;52.542;13.440;2022-12-15T01:34:48;69.47;;;40.85;;
2053;SDS011;1032;52.542;13.440;2022-12-15T01:37:15;65.00;;;39.83;;
2053;SDS011;1032;52.542;13.440;2022-12-15T01:39:43;73.47;;;41.05;;
2053;SDS011;1032;52.542;13.440;2022-12-15T01:42:27;63.25;;;39.22;;
2053;SDS011;1032;52.542;13.440;2022-12-15T01:47:55;69.00;;;38.47;;
2053;SDS011;1032;52.542;13.440;2022-12-15T01:50:26;69.15;;;38.60;;
2053;SDS011;1032;52.542;13.440;2022-12-15T01:52:54;72.05;;;40.92;;
2053;SDS011;1032;52.542;13.440;2022-12-15T01:55:23;82.93;;;42.50;;
2053;SDS011;1032;52.542;13.440;2022-12-15T01:57:53;73.88;;;42.97;;
2053;SDS011;1032;52.542;13.440;2022-12-15T02:00:24;72.82;;;41.30;;
2053;SDS011;1032;52.542;13.440;2022-12-15T02:02:52;71.30;;;41.92;;
2053;SDS011;1032;52.542;13.440;2022-12-15T02:05:19;68.10;;;41.28;;
2053;SDS011;1032;52.542;13.440;2022-12-15T02:07:47;77.22;;;42.17;;
2053;SDS011;1032;52.542;13.440;2022-12-15T02:10:13;66.68;;;38.75;;
2053;SDS011;1032;52.542;13.440;2022-12-15T02:12:43;79.00;;;42.28;;
2053;SDS011;1032;52.542;13.440;2022-12-15T02:15:19;69.00;;;42.13;;
2053;SDS011;1032;52.542;13.440;2022-12-15T02:17:54;76.85;;;44.10;;
2053;SDS011;1032;52.542;13.440;2022-12-15T02:20:37;74.30;;;40.28;;
2053;SDS011;1032;52.542;13.440;2022-12-15T02:26:18;65.05;;;39.75;;
2053;SDS011;1032;52.542;13.440;2022-12-15T02:29:21;71.45;;;40.50;;
2053;SDS011;1032;52.542;13.440;2022-12-15T02:32:03;68.07;;;38.25;;
2053;SDS011;1032;52.542;13.440;2022-12-15T02:34:37;74.82;;;39.30;;
2053;SDS011;1032;52.542;13.440;2022-12-15T02:37:09;72.10;;;41.60;;
2053;SDS011;1032;52.542;13.440;2022-12-15T02:42:24;74.50;;;40.85;;
2053;SDS011;1032;52.542;13.440;2022-12-15T02:44:54;72.20;;;39.60;;
2053;SDS011;1032;52.542;13.440;2022-12-15T02:47:28;68.15;;;40.58;;
2053;SDS011;1032;52.542;13.440;2022-12-15T02:50:03;81.97;;;42.33;;
2053;SDS011;1032;52.542;13.440;2022-12-15T02:53:01;63.22;;;40.22;;
2053;SDS011;1032;52.542;13.440;2022-12-15T02:55:40;74.68;;;40.80;;
2053;SDS011;1032;52.542;13.440;2022-12-15T02:58:18;66.40;;;40.08;;
2053;SDS011;1032;52.542;13.440;2022-12-15T03:00:49;62.75;;;39.75;;
2053;SDS011;1032;52.542;13.440;2022-12-15T03:03:24;66.45;;;39.15;;
2053;SDS011;1032;52.542;13.440;2022-12-15T03:05:53;57.22;;;36.72;;
2053;SDS011;1032;52.542;13.440;2022-12-15T03:08:21;60.35;;;37.50;;
2053;SDS011;1032;52.542;13.440;2022-12-15T03:10:48;61.30;;;36.40;;
2053;SDS011;1032;52.542;13.440;2022-12-15T03:13:21;64.25;;;37.80;;
2053;SDS011;1032;52.542;13.440;2022-12-15T03:15:47;62.72;;;37.72;;
2053;SDS011;1032;52.542;13.440;2022-12-15T03:18:14;57.20;;;35.35;;
2053;SDS011;1032;52.542;13.440;2022-12-15T03:20:43;63.35;;;34.42;;
2053;SDS011;1032;52.542;13.440;2022-12-15T03:23:10;64.63;;;35.17;;
2053;SDS011;1032;52.542;13.440;2022-12-15T03:25:37;59.00;;;34.45;;
2053;SDS011;1032;52.542;13.440;2022-12-15T03:28:03;59.42;;;35.47;;
2053;SDS011;1032;52.542;13.440;2022-12-15T03:30:30;56.97;;;34.75;;
2053;SDS011;1032;52.542;13.440;2022-12-15T03:32:57;58.22;;;33.70;;
2053;SDS011;1032;52.542;13.440;2022-12-15T03:35:23;61.22;;;34.70;;
2053;SDS011;1032;52.542;13.440;2022-12-15T03:37:51;68.10;;;35.20;;
2053;SDS011;1032;52.542;13.440;2022-12-15T03:40:18;60.88;;;35.88;;
2053;SDS011;1032;52.542;13.440;2022-12-15T03:42:44;65.93;;;36.00;;
2053;SDS011;1032;52.542;13.440;2022-12-15T03:45:14;54.55;;;35.28;;
2053;SDS011;1032;52.542;13.440;2022-12-15T03:47:42;59.10;;;34.70;;
2053;SDS011;1032;52.542;13.440;2022-12-15T03:50:09;59.15;;;35.47;;
2053;SDS011;1032;52.542;13.440;2022-12-15T03:52:37;65.60;;;35.72;;
2053;SDS011;1032;52.542;13.440;2022-12-15T03:55:06;64.93;;;36.65;;
2053;SDS011;1032;52.542;13.440;2022-12-15T03:57:33;65.05;;;36.97;;
2053;SDS011;1032;52.542;13.440;2022-12-15T04:00:00;64.22;;;36.95;;
2053;SDS011;1032;52.542;13.440;2022-12-15T04:02:26;56.70;;;34.83;;
2053;SDS011;1032;52.542;13.440;2022-12-15T04:04:53;66.85;;;36.13;;
2053;SDS011;1032;52.542;13.440;2022-12-15T04:07:20;71.07;;;37.63;;
2053;SDS011;1032;52.542;13.440;2022-12-15T04:09:46;69.07;;;36.10;;
2053;SDS011;1032;52.542;13.440;2022-12-15T04:12:14;56.88;;;35.35;;
2053;SDS011;1032;52.542;13.440;2022-12-15T04:14:40;65.05;;;38.45;;
2053;SDS011;1032;52.542;13.440;2022-12-15T04:17:07;61.08;;;34.67;;
2053;SDS011;1032;52.542;13.440;2022-12-15T04:19:34;74.28;;;37.42;;
2053;SDS011;1032;52.542;13.440;2022-12-15T04:22:19;52.97;;;33.70;;
2053;SDS011;1032;52.542;13.440;2022-12-15T04:24:46;69.88;;;37.08;;
2053;SDS011;1032;52.542;13.440;2022-12-15T04:27:31;66.05;;;36.92;;
2053;SDS011;1032;52.542;13.440;2022-12-15T04:30:16;65.80;;;36.30;;
2053;SDS011;1032;52.542;13.440;2022-12-15T04:33:00;62.88;;;36.15;;
2053;SDS011;1032;52.542;13.440;2022-12-15T04:35:46;62.35;;;35.85;;
2053;SDS011;1032;52.542;13.440;2022-12-15T04:38:32;64.43;;;37.95;;
2053;SDS011;1032;52.542;13.440;2022-12-15T04:41:16;52.38;;;34.17;;
2053;SDS011;1032;52.542;13.440;2022-12-15T04:44:03;52.88;;;35.20;;
2053;SDS011;1032;52.542;13.440;2022-12-15T04:46:47;57.45;;;36.55;;
2053;SDS011;1032;52.542;13.440;2022-12-15T04:49:32;57.83;;;34.60;;
2053;SDS011;1032;52.542;13.440;2022-12-15T04:52:16;53.78;;;33.55;;
2053;SDS011;1032;52.542;13.440;2022-12-15T04:55:01;54.60;;;33.97;;
2053;SDS011;1032;52.542;13.440;2022-12-15T04:57:45;65.32;;;34.63;;
2053;SDS011;1032;52.542;13.440;2022-12-15T05:00:31;59.95;;;33.85;;
2053;SDS011;1032;52.542;13.440;2022-12-15T05:03:15;54.03;;;32.65;;
2053;SDS011;1032;52.542;13.440;2022-12-15T05:05:59;59.78;;;34.72;;
2053;SDS011;1032;52.542;13.440;2022-12-15T05:08:44;62.30;;;35.53;;
2053;SDS011;1032;52.542;13.440;2022-12-15T05:11:28;52.60;;;34.95;;
2053;SDS011;1032;52.542;13.440;2022-12-15T05:14:13;63.58;;;35.78;;
2053;SDS011;1032;52.542;13.440;2022-12-15T05:16:58;55.22;;;33.75;;
2053;SDS011;1032;52.542;13.440;2022-12-15T05:19:43;62.45;;;35.85;;
2053;SDS011;1032;52.542;13.440;2022-12-15T05:22:27;54.25;;;35.25;;
2053;SDS011;1032;52.542;13.440;2022-12-15T05:25:12;52.92;;;32.92;;
2053;SDS011;1032;52.542;13.440;2022-12-15T05:27:56;53.17;;;34.40;;
2053;SDS011;1032;52.542;13.440;2022-12-15T05:30:40;55.85;;;32.88;;
2053;SDS011;1032;52.542;13.440;2022-12-15T05:33:26;55.30;;;36.40;;
2053;SDS011;1032;52.542;13.440;2022-12-15T05:35:54;60.25;;;35.67;;
2053;SDS011;1032;52.542;13.440;2022-12-15T05:38:22;56.90;;;35.00;;
2053;SDS011;1032;52.542;13.440;2022-12-15T05:40:48;69.00;;;35.75;;
2053;SDS011;1032;52.542;13.440;2022-12-15T05:43:15;52.95;;;31.90;;
2053;SDS011;1032;52.542;13.440;2022-12-15T05:45:41;55.13;;;33.30;;
2053;SDS011;1032;52.542;13.440;2022-12-15T05:48:08;58.28;;;34.00;;
2053;SDS011;1032;52.542;13.440;2022-12-15T05:50:36;53.08;;;32.95;;
2053;SDS011;1032;52.542;13.440;2022-12-15T05:53:04;50.85;;;31.90;;
2053;SDS011;1032;52.542;13.440;2022-12-15T05:55:31;61.70;;;33.22;;
2053;SDS011;1032;52.542;13.440;2022-12-15T05:57:58;55.90;;;34.80;;
2053;SDS011;1032;52.542;13.440;2022-12-15T06:00:24;61.92;;;33.38;;
2053;SDS011;1032;52.542;13.440;2022-12-15T06:02:51;55.65;;;32.53;;
2053;SDS011;1032;52.542;13.440;2022-12-15T06:05:17;56.95;;;31.40;;
2053;SDS011;1032;52.542;13.440;2022-12-15T06:07:45;51.03;;;32.72;;
2053;SDS011;1032;52.542;13.440;2022-12-15T06:10:12;58.13;;;32.38;;
2053;SDS011;1032;52.542;13.440;2022-12-15T06:12:39;61.13;;;32.53;;
2053;SDS011;1032;52.542;13.440;2022-12-15T06:15:05;52.22;;;29.75;;
2053;SDS011;1032;52.542;13.440;2022-12-15T06:17:33;53.65;;;30.80;;
2053;SDS011;1032;52.542;13.440;2022-12-15T06:19:59;52.95;;;30.70;;
2053;SDS011;1032;52.542;13.440;2022-12-15T06:22:26;61.00;;;32.88;;
2053;SDS011;1032;52.542;13.440;2022-12-15T06:24:55;55.22;;;32.25;;
2053;SDS011;1032;52.542;13.440;2022-12-15T06:27:21;53.08;;;29.45;;
2053;SDS011;1032;52.542;13.440;2022-12-15T06:29:48;54.90;;;30.33;;
2053;SDS011;1032;52.542;13.440;2022-12-15T06:32:14;53.92;;;29.75;;
2053;SDS011;1032;52.542;13.440;2022-12-15T06:34:41;55.10;;;29.38;;
2053;SDS011;1032;52.542;13.440;2022-12-15T06:37:08;50.30;;;30.13;;
2053;SDS011;1032;52.542;13.440;2022-12-15T06:39:34;53.55;;;29.00;;
2053;SDS011;1032;52.542;13.440;2022-12-15T06:42:02;60.60;;;31.40;;
2053;SDS011;1032;52.542;13.440;2022-12-15T06:44:29;59.35;;;30.83;;
2053;SDS011;1032;52.542;13.440;2022-12-15T06:46:56;57.22;;;30.58;;
2053;SDS011;1032;52.542;13.440;2022-12-15T06:49:22;61.45;;;31.13;;
2053;SDS011;1032;52.542;13.440;2022-12-15T06:51:49;58.25;;;31.05;;
2053;SDS011;1032;52.542;13.440;2022-12-15T06:54:15;54.35;;;30.90;;
2053;SDS011;1032;52.542;13.440;2022-12-15T06:56:42;61.35;;;33.22;;
2053;SDS011;1032;52.542;13.440;2022-12-15T06:59:10;49.38;;;28.65;;
2053;SDS011;1032;52.542;13.440;2022-12-15T07:01:37;62.00;;;32.30;;
2053;SDS011;1032;52.542;13.440;2022-12-15T07:04:05;55.28;;;30.60;;
2053;SDS011;1032;52.542;13.440;2022-12-15T07:06:32;60.45;;;31.15;;
2053;SDS011;1032;52.542;13.440;2022-12-15T07:09:01;57.47;;;31.65;;
2053;SDS011;1032;52.542;13.440;2022-12-15T07:11:27;60.67;;;30.35;;
2053;SDS011;1032;52.542;13.440;2022-12-15T07:13:54;57.00;;;31.00;;
2053;SDS011;1032;52.542;13.440;2022-12-15T07:16:22;51.58;;;31.35;;
2053;SDS011;1032;52.542;13.440;2022-12-15T07:18:49;62.15;;;35.33;;
2053;SDS011;1032;52.542;13.440;2022-12-15T07:21:16;59.95;;;33.35;;
2053;SDS011;1032;52.542;13.440;2022-12-15T07:23:43;61.22;;;33.47;;
2053;SDS011;1032;52.542;13.440;2022-12-15T07:26:10;62.35;;;33.55;;
2053;SDS011;1032;52.542;13.440;2022-12-15T07:28:36;59.38;;;31.50;;
2053;SDS011;1032;52.542;13.440;2022-12-15T07:31:04;54.97;;;32.38;;
2053;SDS011;1032;52.542;13.440;2022-12-15T07:33:33;59.00;;;32.17;;
2053;SDS011;1032;52.542;13.440;2022-12-15T07:36:01;50.63;;;28.88;;
2053;SDS011;1032;52.542;13.440;2022-12-15T07:38:28;50.90;;;29.10;;
2053;SDS011;1032;52.542;13.440;2022-12-15T07:40:58;49.88;;;30.33;;
2053;SDS011;1032;52.542;13.440;2022-12-15T07:43:26;50.00;;;30.90;;
2053;SDS011;1032;52.542;13.440;2022-12-15T07:45:53;46.85;;;29.02;;
2053;SDS011;1032;52.542;13.440;2022-12-15T07:48:20;46.88;;;27.80;;
2053;SDS011;1032;52.542;13.440;2022-12-15T07:50:49;44.28;;;27.85;;
2053;SDS011;1032;52.542;13.440;2022-12-15T07:53:15;44.30;;;26.25;;
2053;SDS011;1032;52.542;13.440;2022-12-15T07:55:42;45.08;;;27.02;;
2053;SDS011;1032;52.542;13.440;2022-12-15T07:58:09;46.75;;;29.95;;
2053;SDS011;1032;52.542;13.440;2022-12-15T08:00:35;53.35;;;30.30;;
2053;SDS011;1032;52.542;13.440;2022-12-15T08:03:02;46.47;;;30.20;;
2053;SDS011;1032;52.542;13.440;2022-12-15T08:05:29;47.58;;;27.60;;
2053;SDS011;1032;52.542;13.440;2022-12-15T08:07:57;38.53;;;26.80;;
2053;SDS011;1032;52.542;13.440;2022-12-15T08:10:23;44.83;;;27.23;;
2053;SDS011;1032;52.542;13.440;2022-12-15T08:12:51;46.97;;;26.23;;
2053;SDS011;1032;52.542;13.440;2022-12-15T08:15:18;46.92;;;30.52;;
2053;SDS011;1032;52.542;13.440;2022-12-15T08:17:45;50.25;;;33.85;;
2053;SDS011;1032;52.542;13.440;2022-12-15T08:20:11;49.78;;;31.02;;
2053;SDS011;1032;52.542;13.440;2022-12-15T08:22:39;46.60;;;28.65;;
2053;SDS011;1032;52.542;13.440;2022-12-15T08:25:07;50.53;;;33.78;;
2053;SDS011;1032;52.542;13.440;2022-12-15T08:27:34;53.00;;;32.40;;
2053;SDS011;1032;52.542;13.440;2022-12-15T08:30:01;48.13;;;30.05;;
2053;SDS011;1032;52.542;13.440;2022-12-15T08:32:28;50.30;;;31.05;;
2053;SDS011;1032;52.542;13.440;2022-12-15T08:34:55;44.75;;;28.65;;
2053;SDS011;1032;52.542;13.440;2022-12-15T08:37:21;47.28;;;29.25;;
2053;SDS011;1032;52.542;13.440;2022-12-15T08:39:48;51.97;;;28.38;;
2053;SDS011;1032;52.542;13.440;2022-12-15T08:42:16;47.35;;;30.17;;
2053;SDS011;1032;52.542;13.440;2022-12-15T08:44:43;56.22;;;29.65;;
2053;SDS011;1032;52.542;13.440;2022-12-15T08:47:13;51.83;;;29.60;;
2053;SDS011;1032;52.542;13.440;2022-12-15T08:49:39;51.53;;;28.38;;
2053;SDS011;1032;52.542;13.440;2022-12-15T08:52:06;43.75;;;28.35;;
2053;SDS011;1032;52.542;13.440;2022-12-15T08:54:33;52.05;;;30.30;;
2053;SDS011;1032;52.542;13.440;2022-12-15T08:56:59;47.70;;;29.48;;
2053;SDS011;1032;52.542;13.440;2022-12-15T08:59:27;41.63;;;27.45;;
2053;SDS011;1032;52.542;13.440;2022-12-15T09:01:54;48.63;;;27.83;;
2053;SDS011;1032;52.542;13.440;2022-12-15T09:04:21;42.38;;;28.08;;
2053;SDS011;1032;52.542;13.440;2022-12-15T09:06:48;46.30;;;27.15;;
2053;SDS011;1032;52.542;13.440;2022-12-15T09:09:14;49.97;;;29.13;;
2053;SDS011;1032;52.542;13.440;2022-12-15T09:11:41;45.13;;;28.90;;
2053;SDS011;1032;52.542;13.440;2022-12-15T09:14:08;46.03;;;29.40;;
2053;SDS011;1032;52.542;13.440;2022-12-15T09:16:36;52.65;;;26.90;;
2053;SDS011;1032;52.542;13.440;2022-12-15T09:19:02;45.95;;;27.80;;
2053;SDS011;1032;52.542;13.440;2022-12-15T09:21:29;52.88;;;32.20;;
2053;SDS011;1032;52.542;13.440;2022-12-15T09:23:56;44.90;;;30.08;;
2053;SDS011;1032;52.542;13.440;2022-12-15T09:26:26;44.95;;;28.52;;
2053;SDS011;1032;52.542;13.440;2022-12-15T09:28:53;44.38;;;27.83;;
2053;SDS011;1032;52.542;13.440;2022-12-15T09:31:21;45.58;;;27.45;;
2053;SDS011;1032;52.542;13.440;2022-12-15T09:33:51;46.25;;;28.08;;
2053;SDS011;1032;52.542;13.440;2022-12-15T09:36:18;52.15;;;31.38;;
2053;SDS011;1032;52.542;13.440;2022-12-15T09:38:46;48.67;;;27.13;;
2053;SDS011;1032;52.542;13.440;2022-12-15T09:41:17;47.40;;;27.92;;
2053;SDS011;1032;52.542;13.440;2022-12-15T09:43:49;46.60;;;28.88;;
2053;SDS011;1032;52.542;13.440;2022-12-15T09:46:22;47.35;;;27.48;;
2053;SDS011;1032;52.542;13.440;2022-12-15T09:48:54;48.35;;;28.60;;
2053;SDS011;1032;52.542;13.440;2022-12-15T09:51:25;52.92;;;31.67;;
2053;SDS011;1032;52.542;13.440;2022-12-15T09:53:58;56.72;;;31.27;;
2053;SDS011;1032;52.542;13.440;2022-12-15T09:56:27;50.58;;;29.05;;
2053;SDS011;1032;52.542;13.440;2022-12-15T09:59:08;50.40;;;28.63;;
2053;SDS011;1032;52.542;13.440;2022-12-15T10:01:46;52.15;;;29.63;;
2053;SDS011;1032;52.542;13.440;2022-12-15T10:04:21;48.95;;;28.50;;
2053;SDS011;1032;52.542;13.440;2022-12-15T10:06:57;44.17;;;28.33;;
2053;SDS011;1032;52.542;13.440;2022-12-15T10:09:31;46.83;;;28.73;;
2053;SDS011;1032;52.542;13.440;2022-12-15T10:11:58;48.95;;;26.98;;
2053;SDS011;1032;52.542;13.440;2022-12-15T10:14:29;41.95;;;26.30;;
2053;SDS011;1032;52.542;13.440;2022-12-15T10:17:04;43.53;;;27.45;;
2053;SDS011;1032;52.542;13.440;2022-12-15T10:19:43;47.30;;;29.38;;
2053;SDS011;1032;52.542;13.440;2022-12-15T10:22:15;48.20;;;29.60;;
2053;SDS011;1032;52.542;13.440;2022-12-15T10:24:47;48.80;;;27.23;;
2053;SDS011;1032;52.542;13.440;2022-12-15T10:27:19;49.55;;;29.17;;
2053;SDS011;1032;52.542;13.440;2022-12-15T10:29:56;44.97;;;28.33;;
2053;SDS011;1032;52.542;13.440;2022-12-15T10:32:28;51.30;;;33.92;;
2053;SDS011;1032;52.542;13.440;2022-12-15T10:35:05;47.67;;;29.23;;
2053;SDS011;1032;52.542;13.440;2022-12-15T10:37:33;49.22;;;30.80;;
2053;SDS011;1032;52.542;13.440;2022-12-15T10:40:00;49.97;;;28.48;;
2053;SDS011;1032;52.542;13.440;2022-12-15T10:42:27;46.58;;;28.15;;
2053;SDS011;1032;52.542;13.440;2022-12-15T10:44:55;56.35;;;36.72;;
2053;SDS011;1032;52.542;13.440;2022-12-15T10:47:23;52.15;;;31.58;;
2053;SDS011;1032;52.542;13.440;2022-12-15T10:49:51;43.88;;;29.48;;
2053;SDS011;1032;52.542;13.440;2022-12-15T10:52:22;50.08;;;31.27;;
2053;SDS011;1032;52.542;13.440;2022-12-15T10:54:52;45.28;;;29.10;;
2053;SDS011;1032;52.542;13.440;2022-12-15T10:57:21;60.15;;;30.30;;
2053;SDS011;1032;52.542;13.440;2022-12-15T10:59:51;46.13;;;30.20;;
2053;SDS011;1032;52.542;13.440;2022-12-15T11:02:28;42.65;;;28.25;;
2053;SDS011;1032;52.542;13.440;2022-12-15T11:05:02;47.65;;;28.13;;
2053;SDS011;1032;52.542;13.440;2022-12-15T11:07:37;44.28;;;28.23;;
2053;SDS011;1032;52.542;13.440;2022-12-15T11:12:56;49.97;;;28.83;;
2053;SDS011;1032;52.542;13.440;2022-12-15T11:15:38;47.67;;;29.60;;
2053;SDS011;1032;52.542;13.440;2022-12-15T11:18:10;46.15;;;29.42;;
2053;SDS011;1032;52.542;13.440;2022-12-15T11:20:44;60.75;;;31.35;;
2053;SDS011;1032;52.542;13.440;2022-12-15T11:23:19;49.92;;;26.85;;
2053;SDS011;1032;52.542;13.440;2022-12-15T11:25:54;49.88;;;28.10;;
2053;SDS011;1032;52.542;13.440;2022-12-15T11:28:27;54.47;;;28.75;;
2053;SDS011;1032;52.542;13.440;2022-12-15T11:31:01;53.03;;;30.23;;
2053;SDS011;1032;52.542;13.440;2022-12-15T11:33:34;47.20;;;28.65;;
2053;SDS011;1032;52.542;13.440;2022-12-15T11:36:04;47.15;;;28.80;;
2053;SDS011;1032;52.542;13.440;2022-12-15T11:38:40;43.03;;;27.38;;
2053;SDS011;1032;52.542;13.440;2022-12-15T11:41:11;48.10;;;29.25;;
2053;SDS011;1032;52.542;13.440;2022-12-15T11:43:56;44.35;;;28.08;;
2053;SDS011;1032;52.542;13.440;2022-12-15T11:46:46;41.58;;;28.10;;
2053;SDS011;1032;52.542;13.440;2022-12-15T11:49:32;44.22;;;28.15;;
2053;SDS011;1032;52.542;13.440;2022-12-15T11:52:12;43.60;;;27.95;;
2053;SDS011;1032;52.542;13.440;2022-12-15T11:54:51;53.20;;;29.48;;
2053;SDS011;1032;52.542;13.440;2022-12-15T11:57:29;47.95;;;31.10;;
2053;SDS011;1032;52.542;13.440;2022-12-15T12:00:13;43.97;;;28.10;;
2053;SDS011;1032;52.542;13.440;2022-12-15T12:02:44;43.38;;;27.60;;
2053;SDS011;1032;52.542;13.440;2022-12-15T12:05:35;44.70;;;27.85;;
2053;SDS011;1032;52.542;13.440;2022-12-15T12:08:12;39.08;;;26.17;;
2053;SDS011;1032;52.542;13.440;2022-12-15T12:10:48;41.88;;;27.30;;
2053;SDS011;1032;52.542;13.440;2022-12-15T12:13:25;38.92;;;24.88;;
2053;SDS011;1032;52.542;13.440;2022-12-15T12:16:00;40.58;;;25.33;;
2053;SDS011;1032;52.542;13.440;2022-12-15T12:18:36;39.63;;;27.25;;
2053;SDS011;1032;52.542;13.440;2022-12-15T12:21:06;39.67;;;24.13;;
2053;SDS011;1032;52.542;13.440;2022-12-15T12:23:39;38.28;;;25.80;;
2053;SDS011;1032;52.542;13.440;2022-12-15T12:26:14;34.88;;;24.73;;
2053;SDS011;1032;52.542;13.440;2022-12-15T12:28:45;39.85;;;25.90;;
2053;SDS011;1032;52.542;13.440;2022-12-15T12:31:18;42.83;;;26.20;;
2053;SDS011;1032;52.542;13.440;2022-12-15T12:33:53;39.58;;;26.48;;
2053;SDS011;1032;52.542;13.440;2022-12-15T12:36:23;55.30;;;27.98;;
2053;SDS011;1032;52.542;13.440;2022-12-15T12:38:51;45.38;;;26.80;;
2053;SDS011;1032;52.542;13.440;2022-12-15T12:41:24;43.13;;;28.35;;
2053;SDS011;1032;52.542;13.440;2022-12-15T12:43:58;43.85;;;28.08;;
2053;SDS011;1032;52.542;13.440;2022-12-15T12:46:30;40.65;;;26.40;;
2053;SDS011;1032;52.542;13.440;2022-12-15T12:48:59;46.00;;;28.58;;
2053;SDS011;1032;52.542;13.440;2022-12-15T12:51:31;49.58;;;29.88;;
2053;SDS011;1032;52.542;13.440;2022-12-15T12:53:59;48.58;;;29.75;;
2053;SDS011;1032;52.542;13.440;2022-12-15T12:56:31;41.63;;;26.67;;
2053;SDS011;1032;52.542;13.440;2022-12-15T12:59:02;46.03;;;31.20;;
2053;SDS011;1032;52.542;13.440;2022-12-15T13:01:33;41.43;;;28.50;;
2053;SDS011;1032;52.542;13.440;2022-12-15T13:04:04;44.42;;;29.10;;
2053;SDS011;1032;52.542;13.440;2022-12-15T13:09:25;38.45;;;26.88;;
2053;SDS011;1032;52.542;13.440;2022-12-15T13:12:06;43.95;;;28.55;;
2053;SDS011;1032;52.542;13.440;2022-12-15T13:15:02;43.72;;;27.58;;
2053;SDS011;1032;52.542;13.440;2022-12-15T13:17:37;43.05;;;27.90;;
2053;SDS011;1032;52.542;13.440;2022-12-15T13:20:15;37.55;;;26.95;;
2053;SDS011;1032;52.542;13.440;2022-12-15T13:22:53;50.22;;;27.73;;
2053;SDS011;1032;52.542;13.440;2022-12-15T13:25:25;41.72;;;27.33;;
2053;SDS011;1032;52.542;13.440;2022-12-15T13:28:14;44.55;;;26.42;;
2053;SDS011;1032;52.542;13.440;2022-12-15T13:31:11;51.20;;;29.00;;
2053;SDS011;1032;52.542;13.440;2022-12-15T13:33:49;46.00;;;28.58;;
2053;SDS011;1032;52.542;13.440;2022-12-15T13:39:33;40.28;;;26.63;;
2053;SDS011;1032;52.542;13.440;2022-12-15T13:42:34;45.60;;;28.00;;
2053;SDS011;1032;52.542;13.440;2022-12-15T13:48:22;42.97;;;28.42;;
2053;SDS011;1032;52.542;13.440;2022-12-15T13:51:03;40.08;;;25.80;;
2053;SDS011;1032;52.542;13.440;2022-12-15T13:53:43;43.70;;;28.92;;
2053;SDS011;1032;52.542;13.440;2022-12-15T13:56:17;45.75;;;29.65;;
2053;SDS011;1032;52.542;13.440;2022-12-15T13:59:11;46.33;;;29.02;;
2053;SDS011;1032;52.542;13.440;2022-12-15T14:01:47;59.00;;;31.27;;
2053;SDS011;1032;52.542;13.440;2022-12-15T14:04:16;42.55;;;27.90;;
2053;SDS011;1032;52.542;13.440;2022-12-15T14:06:45;44.08;;;28.35;;
2053;SDS011;1032;52.542;13.440;2022-12-15T14:09:14;45.88;;;28.48;;
2053;SDS011;1032;52.542;13.440;2022-12-15T14:11:44;47.25;;;30.75;;
2053;SDS011;1032;52.542;13.440;2022-12-15T14:14:15;56.55;;;31.65;;
2053;SDS011;1032;52.542;13.440;2022-12-15T14:16:44;52.17;;;31.58;;
2053;SDS011;1032;52.542;13.440;2022-12-15T14:19:18;39.75;;;27.48;;
2053;SDS011;1032;52.542;13.440;2022-12-15T14:21:49;47.30;;;27.67;;
2053;SDS011;1032;52.542;13.440;2022-12-15T14:24:21;43.80;;;27.00;;
2053;SDS011;1032;52.542;13.440;2022-12-15T14:26:50;50.80;;;29.52;;
2053;SDS011;1032;52.542;13.440;2022-12-15T14:29:17;43.05;;;27.45;;
2053;SDS011;1032;52.542;13.440;2022-12-15T14:31:46;46.42;;;28.63;;
2053;SDS011;1032;52.542;13.440;2022-12-15T14:34:19;47.90;;;29.48;;
2053;SDS011;1032;52.542;13.440;2022-12-15T14:36:49;46.95;;;27.98;;
2053;SDS011;1032;52.542;13.440;2022-12-15T14:39:19;48.25;;;29.55;;
2053;SDS011;1032;52.542;13.440;2022-12-15T14:41:50;44.60;;;28.52;;
2053;SDS011;1032;52.542;13.440;2022-12-15T14:44:18;47.75;;;27.85;;
2053;SDS011;1032;52.542;13.440;2022-12-15T14:46:50;47.17;;;28.10;;
2053;SDS011;1032;52.542;13.440;2022-12-15T14:49:22;46.42;;;28.48;;
2053;SDS011;1032;52.542;13.440;2022-12-15T14:51:52;46.08;;;29.15;;
2053;SDS011;1032;52.542;13.440;2022-12-15T14:54:28;50.03;;;32.28;;
2053;SDS011;1032;52.542;13.440;2022-12-15T14:56:59;43.28;;;27.85;;
2053;SDS011;1032;52.542;13.440;2022-12-15T14:59:29;53.67;;;31.17;;
2053;SDS011;1032;52.542;13.440;2022-12-15T15:01:58;55.72;;;28.80;;
2053;SDS011;1032;52.542;13.440;2022-12-15T15:04:35;50.67;;;30.30;;
2053;SDS011;1032;52.542;13.440;2022-12-15T15:07:03;53.22;;;29.52;;
2053;SDS011;1032;52.542;13.440;2022-12-15T15:09:32;56.25;;;30.75;;
2053;SDS011;1032;52.542;13.440;2022-12-15T15:12:05;54.00;;;30.42;;
2053;SDS011;1032;52.542;13.440;2022-12-15T15:14:36;52.42;;;32.83;;
2053;SDS011;1032;52.542;13.440;2022-12-15T15:17:06;44.25;;;27.30;;
2053;SDS011;1032;52.542;13.440;2022-12-15T15:19:45;45.25;;;29.55;;
2053;SDS011;1032;52.542;13.440;2022-12-15T15:22:22;39.47;;;26.70;;
2053;SDS011;1032;52.542;13.440;2022-12-15T15:24:52;48.35;;;28.38;;
2053;SDS011;1032;52.542;13.440;2022-12-15T15:27:26;45.85;;;29.52;;